createdAt,value
2018-12-22T00:00:11.014Z,101033.82
2018-12-22T00:04:56.485Z,101035.70
2018-12-22T00:09:42.213Z,101021.23
2018-12-22T00:14:27.540Z,101026.20
2018-12-22T00:19:11.817Z,101024.02
2018-12-22T00:23:59.425Z,101028.08
2018-12-22T00:28:44.675Z,101029.34
2018-12-22T00:33:29.176Z,101018.44
2018-12-22T00:38:14.731Z,101004.57
2018-12-22T00:42:58.966Z,100991.14
2018-12-22T00:47:44.984Z,100998.55
2018-12-22T00:52:30.729Z,100987.53
2018-12-22T00:57:17.670Z,100976.47
2018-12-22T01:02:01.987Z,100973.38
2018-12-22T01:06:48.046Z,100969.66
2018-12-22T01:11:33.248Z,100959.19
2018-12-22T01:16:18.229Z,100959.40
2018-12-22T01:21:03.897Z,100952.48
2018-12-22T01:25:51.881Z,100937.33
2018-12-22T01:30:37.118Z,100930.63
2018-12-22T01:35:23.005Z,100931.80
2018-12-22T01:40:08.416Z,100922.00
2018-12-22T01:44:52.624Z,100916.48
2018-12-22T01:49:37.184Z,100923.40
2018-12-22T01:54:23.079Z,100912.47
2018-12-22T01:59:07.386Z,100907.13
2018-12-22T02:03:52.897Z,100910.28
2018-12-22T02:08:38.804Z,100897.02
2018-12-22T02:13:23.951Z,100900.36
2018-12-22T02:18:08.035Z,100889.98
2018-12-22T02:22:53.859Z,100870.86
2018-12-22T02:27:39.577Z,100869.64
2018-12-22T02:32:25.755Z,100859.09
2018-12-22T02:37:10.792Z,100856.03
2018-12-22T02:41:56.465Z,100863.63
2018-12-22T02:46:41.747Z,100861.36
2018-12-22T02:51:26.947Z,100855.70
2018-12-22T02:56:12.510Z,100860.14
2018-12-22T03:00:57.830Z,100856.16
2018-12-22T03:05:44.628Z,100841.84
2018-12-22T03:10:29.893Z,100843.06
2018-12-22T03:15:15.035Z,100829.58
2018-12-22T03:20:00.685Z,100824.64
2018-12-22T03:24:46.160Z,100833.84
2018-12-22T03:29:31.751Z,100841.15
2018-12-22T03:34:17.762Z,100835.19
2018-12-22T03:39:02.267Z,100825.41
2018-12-22T03:43:48.679Z,100809.34
2018-12-22T03:48:32.984Z,100801.62
2018-12-22T03:53:19.836Z,100796.91
2018-12-22T03:58:04.247Z,100796.30
2018-12-22T04:02:50.479Z,100791.27
2018-12-22T04:07:34.923Z,100801.16
2018-12-22T04:12:20.468Z,100797.68
2018-12-22T04:17:05.808Z,100800.89
2018-12-22T04:21:51.104Z,100802.63
2018-12-22T04:26:40.036Z,100780.30
2018-12-22T04:31:25.758Z,100787.88
2018-12-22T04:36:14.211Z,100783.45
2018-12-22T04:40:59.447Z,100775.91
2018-12-22T04:45:45.691Z,100767.82
2018-12-22T04:50:29.984Z,100779.37
2018-12-22T04:55:18.310Z,100765.05
2018-12-22T05:00:04.229Z,100784.97
2018-12-22T05:04:52.229Z,100784.77
2018-12-22T05:09:37.834Z,100789.10
2018-12-22T05:14:22.657Z,100783.34
2018-12-22T05:19:07.883Z,100786.80
2018-12-22T05:23:52.091Z,100782.48
2018-12-22T05:28:37.640Z,100784.75
2018-12-22T05:33:26.001Z,100797.09
2018-12-22T05:38:10.306Z,100786.56
2018-12-22T05:42:56.778Z,100784.80
2018-12-22T05:47:43.681Z,100786.78
2018-12-22T05:52:32.203Z,100786.45
2018-12-22T05:57:16.722Z,100796.55
2018-12-22T06:02:01.261Z,100796.94
2018-12-22T06:06:50.281Z,100790.09
2018-12-22T06:11:37.168Z,100805.17
2018-12-22T06:16:22.931Z,100806.94
2018-12-22T06:21:09.528Z,100804.96
2018-12-22T06:25:54.753Z,100805.15
2018-12-22T06:30:39.992Z,100808.45
2018-12-22T06:35:25.437Z,100811.40
2018-12-22T06:40:09.601Z,100791.34
2018-12-22T06:44:55.201Z,100778.86
2018-12-22T06:49:39.452Z,100774.53
2018-12-22T06:54:25.163Z,100771.02
2018-12-22T06:59:09.440Z,100774.56
2018-12-22T07:03:55.727Z,100755.39
2018-12-22T07:08:41.393Z,100755.42
2018-12-22T07:13:27.415Z,100763.67
2018-12-22T07:18:13.315Z,100758.50
2018-12-22T07:23:00.611Z,100772.27
2018-12-22T07:27:45.821Z,100754.16
2018-12-22T07:32:30.941Z,100757.84
2018-12-22T07:37:17.450Z,100768.03
2018-12-22T07:42:01.790Z,100766.59
2018-12-22T07:46:46.429Z,100799.59
2018-12-22T07:51:36.255Z,100812.22
2018-12-22T07:56:22.010Z,100809.40
2018-12-22T08:01:08.457Z,100793.98
2018-12-22T08:05:52.656Z,100768.49
2018-12-22T08:10:37.082Z,100744.66
2018-12-22T08:15:24.024Z,100739.45
2018-12-22T08:20:14.432Z,100739.31
2018-12-22T08:25:02.069Z,100754.24
2018-12-22T08:29:47.775Z,100744.31
2018-12-22T08:34:34.002Z,100745.41
2018-12-22T08:39:19.056Z,100751.45
2018-12-22T08:44:04.443Z,100751.85
2018-12-22T08:48:49.114Z,100743.16
2018-12-22T08:53:35.593Z,100741.80
2018-12-22T08:58:26.444Z,100725.59
2018-12-22T09:03:11.264Z,100706.88
2018-12-22T09:07:55.808Z,100694.17
2018-12-22T09:12:45.479Z,100704.61
2018-12-22T09:17:30.140Z,100693.32
2018-12-22T09:22:16.316Z,100695.69
2018-12-22T09:27:00.807Z,100701.73
2018-12-22T09:31:45.053Z,100695.66
2018-12-22T09:36:35.081Z,100687.84
2018-12-22T09:41:20.730Z,100678.80
2018-12-22T09:46:06.643Z,100679.44
2018-12-22T09:50:52.308Z,100664.30
2018-12-22T09:55:38.037Z,100661.52
2018-12-22T10:00:24.091Z,100659.34
2018-12-22T10:05:10.115Z,100653.86
2018-12-22T10:09:54.875Z,100629.11
2018-12-22T10:14:41.512Z,100619.59
2018-12-22T10:19:25.800Z,100614.38
2018-12-22T10:24:10.992Z,100614.05
2018-12-22T10:28:56.553Z,100594.84
2018-12-22T10:33:41.359Z,100595.19
2018-12-22T10:38:26.954Z,100588.15
2018-12-22T10:43:11.542Z,100585.89
2018-12-22T10:47:56.741Z,100574.78
2018-12-22T10:52:42.831Z,100564.45
2018-12-22T10:57:29.316Z,100560.23
2018-12-22T11:02:18.674Z,100556.64
2018-12-22T11:07:08.124Z,100552.15
2018-12-22T11:11:53.749Z,100561.64
2018-12-22T11:16:39.825Z,100549.70
2018-12-22T11:21:25.344Z,100543.00
2018-12-22T11:26:10.448Z,100547.38
2018-12-22T11:30:56.724Z,100537.16
2018-12-22T11:35:46.894Z,100546.45
2018-12-22T11:40:32.437Z,100542.55
2018-12-22T11:45:17.869Z,100537.34
2018-12-22T11:50:03.207Z,100525.15
2018-12-22T11:54:47.721Z,100508.42
2018-12-22T11:59:32.704Z,100513.12
2018-12-22T12:04:19.016Z,100517.77
2018-12-22T12:09:04.210Z,100516.95
2018-12-22T12:13:48.709Z,100501.77
2018-12-22T12:19:38.732Z,100488.39
2018-12-22T12:24:24.960Z,100495.86
2018-12-22T12:29:10.144Z,100493.59
2018-12-22T12:33:55.645Z,100488.54
2018-12-22T12:38:41.634Z,100480.24
2018-12-22T12:43:26.634Z,100490.94
2018-12-22T12:48:18.218Z,100491.06
2018-12-22T12:53:09.572Z,100474.54
2018-12-22T12:57:49.910Z,100481.95
2018-12-22T13:02:34.298Z,100485.45
2018-12-22T13:07:18.630Z,100489.81
2018-12-22T13:12:12.309Z,100486.33
2018-12-22T13:16:56.748Z,100490.98
2018-12-22T13:21:45.260Z,100485.55
2018-12-22T13:26:36.816Z,100491.34
2018-12-22T13:31:20.651Z,100497.33
2018-12-22T13:36:05.268Z,100486.45
2018-12-22T13:40:51.133Z,100494.57
2018-12-22T13:45:38.159Z,100513.89
2018-12-22T13:50:23.674Z,100514.28
2018-12-22T13:55:09.726Z,100489.30
2018-12-22T13:59:55.976Z,100478.54
2018-12-22T14:04:42.643Z,100480.74
2018-12-22T14:09:28.316Z,100477.55
2018-12-22T14:14:19.275Z,100481.43
2018-12-22T14:19:07.730Z,100485.91
2018-12-22T14:24:10.264Z,100489.58
2018-12-22T14:28:54.964Z,100496.22
2018-12-22T14:33:42.213Z,100478.92
2018-12-22T14:38:26.651Z,100481.97
2018-12-22T14:43:13.675Z,100499.93
2018-12-22T14:47:59.281Z,100500.97
2018-12-22T14:52:54.005Z,100503.16
2018-12-22T14:57:47.077Z,100504.27
2018-12-22T15:02:35.378Z,100504.20
2018-12-22T15:07:21.153Z,100505.66
2018-12-22T15:12:07.485Z,100485.94
2018-12-22T15:16:52.980Z,100496.37
2018-12-22T15:21:37.916Z,100492.05
2018-12-22T15:26:23.805Z,100507.41
2018-12-22T15:31:08.075Z,100503.34
2018-12-22T15:35:53.180Z,100493.00
2018-12-22T15:40:41.273Z,100483.55
2018-12-22T15:45:25.527Z,100477.28
2018-12-22T15:50:14.062Z,100483.70
2018-12-22T15:54:59.310Z,100492.59
2018-12-22T15:59:43.645Z,100485.79
2018-12-22T16:04:29.469Z,100483.46
2018-12-22T16:09:14.719Z,100476.30
2018-12-22T16:14:00.906Z,100472.56
2018-12-22T16:18:46.344Z,100471.98
2018-12-22T16:23:30.715Z,100475.06
2018-12-22T16:28:26.026Z,100477.80
2018-12-22T16:33:10.641Z,100482.34
2018-12-22T16:37:55.800Z,100479.05
2018-12-22T16:42:40.509Z,100492.23
2018-12-22T16:47:25.548Z,100489.17
2018-12-22T16:52:11.219Z,100496.14
2018-12-22T16:56:55.632Z,100489.16
2018-12-22T17:01:56.697Z,100494.41
2018-12-22T17:06:42.051Z,100492.72
2018-12-22T17:11:29.160Z,100484.72
2018-12-22T17:16:14.449Z,100475.90
2018-12-22T17:21:23.411Z,100471.37
2018-12-22T17:26:09.349Z,100480.83
2018-12-22T17:30:54.590Z,100478.86
2018-12-22T17:35:42.353Z,100461.67
2018-12-22T17:40:34.140Z,100451.24
2018-12-22T17:45:19.085Z,100450.25
2018-12-22T17:50:04.460Z,100453.08
2018-12-22T17:54:50.425Z,100459.31
2018-12-22T17:59:36.257Z,100440.96
2018-12-22T18:04:22.116Z,100448.33
2018-12-22T18:09:08.182Z,100439.41
2018-12-22T18:13:52.529Z,100435.41
2018-12-22T18:18:38.242Z,100426.94
2018-12-22T18:23:23.671Z,100431.35
2018-12-22T18:28:09.219Z,100428.40
2018-12-22T18:32:54.817Z,100424.86
2018-12-22T18:37:39.704Z,100425.42
2018-12-22T18:42:26.218Z,100412.65
2018-12-22T18:47:10.634Z,100412.75
2018-12-22T18:51:55.679Z,100414.99
2018-12-22T18:56:40.976Z,100388.88
2018-12-22T19:01:25.908Z,100411.67
2018-12-22T19:06:11.069Z,100415.09
2018-12-22T19:11:00.890Z,100421.49
2018-12-22T19:15:46.840Z,100419.77
2018-12-22T19:20:41.762Z,100403.75
2018-12-22T19:25:26.933Z,100413.11
2018-12-22T19:30:13.367Z,100401.06
2018-12-22T19:34:59.208Z,100402.06
2018-12-22T19:39:45.033Z,100400.49
2018-12-22T19:44:32.210Z,100393.54
2018-12-22T19:49:18.585Z,100384.70
2018-12-22T19:54:02.936Z,100378.48
2018-12-22T19:58:47.849Z,100358.35
2018-12-22T20:03:33.548Z,100358.35
2018-12-22T20:08:18.322Z,100366.64
2018-12-22T20:13:04.273Z,100381.62
2018-12-22T20:17:48.650Z,100383.09
2018-12-22T20:22:36.349Z,100379.97
2018-12-22T20:27:21.625Z,100391.05
2018-12-22T20:32:06.236Z,100388.73
2018-12-22T20:36:52.163Z,100395.98
2018-12-22T20:41:37.357Z,100397.03
2018-12-22T20:46:23.318Z,100398.77
2018-12-22T20:51:07.762Z,100408.94
2018-12-22T20:55:57.022Z,100391.65
2018-12-22T21:00:45.179Z,100389.14
2018-12-22T21:05:34.110Z,100384.71
2018-12-22T21:10:19.652Z,100381.45
2018-12-22T21:15:07.273Z,100377.78
2018-12-22T21:19:52.808Z,100370.30
2018-12-22T21:24:38.156Z,100353.79
2018-12-22T21:29:23.088Z,100348.53
2018-12-22T21:34:12.885Z,100349.56
2018-12-22T21:38:57.105Z,100354.16
2018-12-22T21:43:44.131Z,100346.25
2018-12-22T21:48:29.134Z,100341.19
2018-12-22T21:53:15.128Z,100353.64
2018-12-22T21:57:59.454Z,100352.75
2018-12-22T22:02:46.087Z,100352.55
2018-12-22T22:07:31.326Z,100349.64
2018-12-22T22:12:16.899Z,100338.38
2018-12-22T22:17:07.958Z,100344.42
2018-12-22T22:21:54.258Z,100326.16
2018-12-22T22:26:38.864Z,100336.96
2018-12-22T22:31:24.988Z,100329.89
2018-12-22T22:36:10.299Z,100330.38
2018-12-22T22:40:56.029Z,100321.65
2018-12-22T22:45:40.367Z,100323.67
2018-12-22T22:50:26.593Z,100310.12
2018-12-22T22:55:10.972Z,100297.88
2018-12-22T22:59:55.214Z,100295.84
2018-12-22T23:04:40.906Z,100303.66
2018-12-22T23:09:27.524Z,100294.92
2018-12-22T23:14:12.782Z,100301.89
2018-12-22T23:18:58.538Z,100293.42
2018-12-22T23:23:43.897Z,100298.67
2018-12-22T23:28:29.404Z,100285.77
2018-12-22T23:33:15.846Z,100289.15
2018-12-22T23:38:00.764Z,100275.98
2018-12-22T23:42:46.501Z,100270.79
2018-12-22T23:47:31.476Z,100274.35
2018-12-22T23:52:17.877Z,100273.47
2018-12-22T23:57:02.241Z,100277.94
